createdAt,value
2022-12-09T00:01:11.585Z,-5.93
2022-12-09T00:03:39.099Z,-5.89
2022-12-09T00:06:15.522Z,-5.91
2022-12-09T00:08:42.552Z,-5.91
2022-12-09T00:11:09.479Z,-5.91
2022-12-09T00:13:36.939Z,-5.93
2022-12-09T00:16:14.839Z,-5.96
2022-12-09T00:18:42.483Z,-6.03
2022-12-09T00:21:15.036Z,-5.84
2022-12-09T00:23:42.075Z,-5.70
2022-12-09T00:26:08.929Z,-5.67
2022-12-09T00:28:35.849Z,-5.71
2022-12-09T00:31:04.048Z,-5.79
2022-12-09T00:33:32.893Z,-5.87
2022-12-09T00:36:12.190Z,-5.96
2022-12-09T00:38:39.239Z,-6.08
2022-12-09T00:41:06.171Z,-6.11
2022-12-09T00:43:33.879Z,-6.09
2022-12-09T00:46:01.651Z,-6.19
2022-12-09T00:48:29.358Z,-6.11
2022-12-09T00:50:56.614Z,-6.12
2022-12-09T00:53:23.487Z,-6.12
2022-12-09T00:55:50.563Z,-6.18
2022-12-09T00:58:17.658Z,-6.22
2022-12-09T01:00:44.762Z,-6.25
2022-12-09T01:03:16.709Z,-6.30
2022-12-09T01:05:44.503Z,-6.39
2022-12-09T01:08:12.347Z,-6.46
2022-12-09T01:10:40.788Z,-6.40
2022-12-09T01:13:08.162Z,-6.37
2022-12-09T01:15:35.129Z,-6.28
2022-12-09T01:18:02.249Z,-6.25
2022-12-09T01:20:29.526Z,-6.18
2022-12-09T01:22:56.678Z,-6.14
2022-12-09T01:25:23.681Z,-6.17
2022-12-09T01:27:50.734Z,-6.22
2022-12-09T01:30:17.794Z,-6.26
2022-12-09T01:32:44.789Z,-6.33
2022-12-09T01:35:11.752Z,-6.40
2022-12-09T01:37:38.970Z,-6.51
2022-12-09T01:40:09.539Z,-6.56
2022-12-09T01:42:36.934Z,-6.62
2022-12-09T01:45:22.382Z,-6.59
2022-12-09T01:48:02.302Z,-6.55
2022-12-09T01:50:29.909Z,-6.59
2022-12-09T01:52:57.895Z,-6.65
2022-12-09T01:55:25.258Z,-6.70
2022-12-09T01:57:52.891Z,-6.71
2022-12-09T02:00:21.032Z,-6.75
2022-12-09T02:02:50.585Z,-6.79
2022-12-09T02:05:18.847Z,-6.80
2022-12-09T02:07:45.716Z,-6.79
2022-12-09T02:10:17.503Z,-6.69
2022-12-09T02:13:13.433Z,-6.53
2022-12-09T02:15:48.215Z,-6.47
2022-12-09T02:18:36.150Z,-6.49
2022-12-09T02:21:18.597Z,-6.55
2022-12-09T02:23:51.842Z,-6.64
2022-12-09T02:26:42.549Z,-6.70
2022-12-09T02:29:30.637Z,-6.75
2022-12-09T02:32:06.801Z,-6.78
2022-12-09T02:34:39.524Z,-6.83
2022-12-09T02:37:44.694Z,-6.57
2022-12-09T02:40:19.598Z,-6.65
2022-12-09T02:42:48.739Z,-6.71
2022-12-09T02:45:18.603Z,-6.81
2022-12-09T02:47:50.495Z,-6.90
2022-12-09T02:50:21.614Z,-6.97
2022-12-09T02:52:50.030Z,-7.03
2022-12-09T02:55:19.489Z,-7.08
2022-12-09T02:57:51.140Z,-7.14
2022-12-09T03:00:18.527Z,-7.15
2022-12-09T03:02:50.484Z,-7.16
2022-12-09T03:05:47.966Z,-7.14
2022-12-09T03:08:24.744Z,-7.13
2022-12-09T03:11:16.086Z,-7.12
2022-12-09T03:14:03.447Z,-7.06
2022-12-09T03:16:59.534Z,-7.06
2022-12-09T03:19:32.055Z,-7.05
2022-12-09T03:22:03.991Z,-7.05
2022-12-09T03:24:39.673Z,-7.04
2022-12-09T03:27:10.398Z,-7.04
2022-12-09T03:29:41.674Z,-7.01
2022-12-09T03:32:11.827Z,-6.93
2022-12-09T03:34:42.446Z,-6.90
2022-12-09T03:37:12.145Z,-6.81
2022-12-09T03:39:40.164Z,-6.71
2022-12-09T03:42:16.024Z,-6.63
2022-12-09T03:44:52.350Z,-6.53
2022-12-09T03:47:19.627Z,-6.44
2022-12-09T03:49:46.596Z,-6.35
2022-12-09T03:52:35.387Z,-6.28
2022-12-09T03:55:09.423Z,-6.23
2022-12-09T03:57:40.496Z,-6.24
2022-12-09T04:00:08.359Z,-6.24
2022-12-09T04:02:35.461Z,-6.22
2022-12-09T04:05:02.638Z,-6.18
2022-12-09T04:07:30.231Z,-6.13
2022-12-09T04:09:57.180Z,-6.03
2022-12-09T04:12:24.249Z,-5.95
2022-12-09T04:14:51.265Z,-5.87
2022-12-09T04:17:18.125Z,-5.78
2022-12-09T04:19:45.094Z,-5.69
2022-12-09T04:22:14.956Z,-5.59
2022-12-09T04:24:42.186Z,-5.47
2022-12-09T04:27:11.895Z,-5.37
2022-12-09T04:29:39.899Z,-5.29
2022-12-09T04:32:07.089Z,-5.22
2022-12-09T04:34:34.736Z,-5.16
2022-12-09T04:37:01.752Z,-5.11
2022-12-09T04:39:28.566Z,-5.06
2022-12-09T04:41:55.271Z,-5.01
2022-12-09T04:44:22.656Z,-4.98
2022-12-09T04:46:49.973Z,-4.95
2022-12-09T04:49:16.824Z,-4.92
2022-12-09T04:51:43.909Z,-4.91
2022-12-09T04:54:14.574Z,-4.88
2022-12-09T04:56:42.498Z,-4.86
2022-12-09T04:59:09.433Z,-4.89
2022-12-09T05:01:36.559Z,-4.92
2022-12-09T05:04:05.416Z,-4.96
2022-12-09T05:06:32.863Z,-4.99
2022-12-09T05:09:00.355Z,-5.01
2022-12-09T05:11:28.216Z,-5.12
2022-12-09T05:13:55.284Z,-5.05
2022-12-09T05:16:23.174Z,-5.05
2022-12-09T05:18:50.351Z,-5.06
2022-12-09T05:21:20.220Z,-5.06
2022-12-09T05:23:48.066Z,-5.06
2022-12-09T05:26:18.043Z,-5.05
2022-12-09T05:28:45.038Z,-5.06
2022-12-09T05:31:18.147Z,-5.04
2022-12-09T05:33:46.289Z,-5.02
2022-12-09T05:36:17.732Z,-5.04
2022-12-09T05:38:45.160Z,-5.00
2022-12-09T05:41:12.980Z,-4.99
2022-12-09T05:43:41.196Z,-4.98
2022-12-09T05:46:08.629Z,-4.95
2022-12-09T05:48:36.643Z,-4.94
2022-12-09T05:51:06.777Z,-4.92
2022-12-09T05:53:34.768Z,-4.94
2022-12-09T05:56:02.035Z,-4.97
2022-12-09T05:58:29.575Z,-5.04
2022-12-09T06:00:58.050Z,-5.00
2022-12-09T06:03:25.404Z,-5.01
2022-12-09T06:05:52.644Z,-5.02
2022-12-09T06:08:20.408Z,-5.03
2022-12-09T06:10:47.454Z,-5.04
2022-12-09T06:13:15.272Z,-5.04
2022-12-09T06:15:42.425Z,-5.05
2022-12-09T06:18:09.742Z,-5.06
2022-12-09T06:20:40.517Z,-5.06
2022-12-09T06:23:07.936Z,-5.06
2022-12-09T06:25:35.592Z,-5.06
2022-12-09T06:28:03.562Z,-5.06
2022-12-09T06:30:31.251Z,-5.05
2022-12-09T06:32:58.460Z,-5.06
2022-12-09T06:35:25.488Z,-5.05
2022-12-09T06:37:53.689Z,-5.03
2022-12-09T06:40:23.654Z,-5.03
2022-12-09T06:42:51.398Z,-5.02
2022-12-09T06:45:19.955Z,-5.04
2022-12-09T06:47:48.428Z,-5.06
2022-12-09T06:50:16.238Z,-5.08
2022-12-09T06:52:43.516Z,-5.07
2022-12-09T06:55:11.295Z,-5.04
2022-12-09T06:57:38.866Z,-5.03
2022-12-09T07:00:06.666Z,-4.99
2022-12-09T07:02:36.704Z,-4.95
2022-12-09T07:05:04.689Z,-4.92
2022-12-09T07:07:32.564Z,-4.92
2022-12-09T07:10:03.102Z,-4.86
2022-12-09T07:12:30.330Z,-4.79
2022-12-09T07:14:57.601Z,-4.76
2022-12-09T07:17:24.817Z,-4.74
2022-12-09T07:19:52.035Z,-4.68
2022-12-09T07:22:19.146Z,-4.68
2022-12-09T07:24:46.404Z,-4.60
2022-12-09T07:27:19.373Z,-4.57
2022-12-09T07:29:47.213Z,-4.55
2022-12-09T07:32:14.896Z,-4.55
2022-12-09T07:34:43.055Z,-4.52
2022-12-09T07:37:10.249Z,-4.49
2022-12-09T07:39:37.497Z,-4.43
2022-12-09T07:42:04.631Z,-4.40
2022-12-09T07:44:31.776Z,-4.36
2022-12-09T07:46:58.724Z,-4.33
2022-12-09T07:49:26.615Z,-4.30
2022-12-09T07:51:53.702Z,-4.26
2022-12-09T07:54:21.373Z,-4.23
2022-12-09T07:56:48.800Z,-4.20
2022-12-09T07:59:17.031Z,-4.16
2022-12-09T08:01:44.548Z,-4.13
2022-12-09T08:04:12.306Z,-4.09
2022-12-09T08:06:39.705Z,-4.02
2022-12-09T08:09:10.432Z,-4.01
2022-12-09T08:11:37.515Z,-3.97
2022-12-09T08:14:11.273Z,-3.94
2022-12-09T08:16:39.716Z,-3.90
2022-12-09T08:19:07.302Z,-3.87
2022-12-09T08:21:34.601Z,-3.88
2022-12-09T08:24:04.160Z,-3.78
2022-12-09T08:26:32.530Z,-3.74
2022-12-09T08:28:59.930Z,-3.71
2022-12-09T08:31:27.766Z,-3.70
2022-12-09T08:33:56.010Z,-3.68
2022-12-09T08:36:26.395Z,-3.63
2022-12-09T08:38:54.497Z,-3.61
2022-12-09T08:41:36.340Z,-3.56
2022-12-09T08:44:13.634Z,-3.54
2022-12-09T08:46:43.640Z,-3.49
2022-12-09T08:49:11.846Z,-3.47
2022-12-09T08:51:39.664Z,-3.41
2022-12-09T08:54:07.096Z,-3.38
2022-12-09T08:56:34.472Z,-3.35
2022-12-09T08:59:02.093Z,-3.33
2022-12-09T09:01:36.103Z,-3.27
2022-12-09T09:04:15.699Z,-3.23
2022-12-09T09:06:45.269Z,-3.20
2022-12-09T09:09:14.281Z,-3.16
2022-12-09T09:11:42.211Z,-3.13
2022-12-09T09:14:11.708Z,-3.08
2022-12-09T09:16:40.892Z,-3.08
2022-12-09T09:19:08.774Z,-2.99
2022-12-09T09:21:36.104Z,-2.95
2022-12-09T09:24:09.426Z,-2.94
2022-12-09T09:26:40.168Z,-2.91
2022-12-09T09:29:07.255Z,-2.87
2022-12-09T09:31:35.033Z,-2.83
2022-12-09T09:34:02.067Z,-2.80
2022-12-09T09:36:29.073Z,-2.84
2022-12-09T09:38:57.433Z,-2.86
2022-12-09T09:41:56.513Z,-2.85
2022-12-09T09:44:30.362Z,-2.77
2022-12-09T09:46:58.535Z,-2.72
2022-12-09T09:49:30.212Z,-2.67
2022-12-09T09:51:58.453Z,-2.62
2022-12-09T09:54:25.626Z,-2.65
2022-12-09T09:57:28.344Z,-2.65
2022-12-09T10:00:27.716Z,-2.63
2022-12-09T10:03:12.932Z,-2.58
2022-12-09T10:05:56.514Z,-2.50
2022-12-09T10:08:29.975Z,-2.44
2022-12-09T10:11:15.024Z,-2.38
2022-12-09T10:14:14.411Z,-2.29
2022-12-09T10:16:43.869Z,-2.21
2022-12-09T10:19:19.763Z,-2.18
2022-12-09T10:21:49.579Z,-2.11
2022-12-09T10:24:26.711Z,-2.04
2022-12-09T10:27:11.831Z,-2.04
2022-12-09T10:29:56.879Z,-2.09
2022-12-09T10:32:27.667Z,-2.06
2022-12-09T10:34:55.149Z,-2.03
2022-12-09T10:37:32.939Z,-1.96
2022-12-09T10:40:13.317Z,-1.90
2022-12-09T10:43:11.052Z,-1.85
2022-12-09T10:48:49.379Z,-1.69
2022-12-09T10:51:18.683Z,-1.69
2022-12-09T10:54:15.450Z,-1.66
2022-12-09T10:57:12.642Z,-1.74
2022-12-09T10:59:42.602Z,-1.66
2022-12-09T11:02:09.876Z,-1.64
2022-12-09T11:04:40.483Z,-1.57
2022-12-09T11:07:07.704Z,-1.55
2022-12-09T11:09:38.655Z,-1.55
2022-12-09T11:12:08.503Z,-1.52
2022-12-09T11:14:41.357Z,-1.47
2022-12-09T11:17:16.058Z,-1.41
2022-12-09T11:19:47.043Z,-1.40
2022-12-09T11:22:23.100Z,-1.38
2022-12-09T11:24:53.763Z,-1.37
2022-12-09T11:27:31.779Z,-1.33
2022-12-09T11:30:12.851Z,-1.32
2022-12-09T11:32:56.721Z,-1.28
2022-12-09T11:35:32.185Z,-1.21
2022-12-09T11:38:03.778Z,-1.17
2022-12-09T11:40:31.944Z,-1.15
2022-12-09T11:42:58.811Z,-1.13
2022-12-09T11:45:36.459Z,-1.10
2022-12-09T11:48:35.045Z,-1.16
2022-12-09T11:51:04.809Z,-1.07
2022-12-09T11:53:34.345Z,-1.01
2022-12-09T11:56:08.046Z,-0.98
2022-12-09T11:59:00.215Z,-0.95
2022-12-09T12:01:45.825Z,-0.94
2022-12-09T12:04:16.842Z,-0.95
2022-12-09T12:06:50.850Z,-0.97
2022-12-09T12:09:29.662Z,-1.23
2022-12-09T12:12:33.877Z,-1.35
2022-12-09T12:15:10.470Z,-1.48
2022-12-09T12:17:43.363Z,-1.42
2022-12-09T12:20:13.322Z,-1.39
2022-12-09T12:23:05.137Z,-1.27
2022-12-09T12:25:56.136Z,-1.22
2022-12-09T12:29:06.884Z,-1.20
2022-12-09T12:32:11.660Z,-1.12
2022-12-09T12:34:51.810Z,-1.05
2022-12-09T12:37:30.853Z,-0.99
2022-12-09T12:40:07.996Z,-0.95
2022-12-09T12:43:19.231Z,-0.86
2022-12-09T12:46:13.260Z,-0.80
2022-12-09T12:49:12.558Z,-0.80
2022-12-09T12:52:46.981Z,-0.77
2022-12-09T12:55:28.750Z,-0.72
2022-12-09T12:58:10.640Z,-0.63
2022-12-09T13:01:00.719Z,-0.57
2022-12-09T13:03:50.703Z,-0.56
2022-12-09T13:06:24.226Z,-0.54
2022-12-09T13:09:03.345Z,-0.50
2022-12-09T13:11:43.313Z,-0.51
2022-12-09T13:14:25.582Z,-0.45
2022-12-09T13:16:53.258Z,-0.45
2022-12-09T13:19:44.125Z,-0.52
2022-12-09T13:22:21.843Z,-0.48
2022-12-09T13:25:00.453Z,-0.45
2022-12-09T13:28:07.726Z,-0.43
2022-12-09T13:30:42.811Z,-0.39
2022-12-09T13:33:32.461Z,-0.38
2022-12-09T13:36:18.510Z,-0.34
2022-12-09T13:38:45.987Z,-0.31
2022-12-09T13:41:27.843Z,-0.31
2022-12-09T13:44:05.955Z,-0.31
2022-12-09T13:46:33.765Z,-0.29
2022-12-09T13:49:10.885Z,-0.27
2022-12-09T13:51:49.925Z,-0.34
2022-12-09T13:54:22.456Z,-0.38
2022-12-09T13:57:17.682Z,-0.38
2022-12-09T13:59:55.322Z,-0.33
2022-12-09T14:02:40.569Z,-0.33
2022-12-09T14:05:13.582Z,-0.30
2022-12-09T14:07:52.922Z,-0.35
2022-12-09T14:10:43.511Z,-0.39
2022-12-09T14:13:25.751Z,-0.35
2022-12-09T14:16:27.836Z,-0.36
2022-12-09T14:18:56.390Z,-0.35
2022-12-09T14:21:26.797Z,-0.34
2022-12-09T14:24:09.086Z,-0.31
2022-12-09T14:26:40.458Z,-0.28
2022-12-09T14:29:07.827Z,-0.34
2022-12-09T14:31:56.013Z,-0.30
2022-12-09T14:34:35.231Z,-0.27
2022-12-09T14:37:17.029Z,-0.26
2022-12-09T14:39:49.525Z,-0.35
2022-12-09T14:43:04.242Z,-0.35
2022-12-09T14:45:48.137Z,-0.32
2022-12-09T14:48:24.002Z,-0.33
2022-12-09T14:51:18.900Z,-0.34
2022-12-09T14:54:12.428Z,-0.34
2022-12-09T14:56:39.403Z,-0.32
2022-12-09T14:59:10.009Z,-0.33
2022-12-09T15:02:00.011Z,-0.35
2022-12-09T15:04:32.501Z,-0.33
2022-12-09T15:07:20.482Z,-0.38
2022-12-09T15:10:08.161Z,-0.40
2022-12-09T15:12:37.905Z,-0.38
2022-12-09T15:15:15.996Z,-0.38
2022-12-09T15:17:54.741Z,-0.42
2022-12-09T15:20:27.678Z,-0.42
2022-12-09T15:23:01.941Z,-0.45
2022-12-09T15:25:29.764Z,-0.46
2022-12-09T15:28:00.095Z,-0.48
2022-12-09T15:30:31.502Z,-0.53
2022-12-09T15:32:58.423Z,-0.54
2022-12-09T15:35:28.534Z,-0.57
2022-12-09T15:37:58.610Z,-0.58
2022-12-09T15:40:29.416Z,-0.61
2022-12-09T15:43:01.045Z,-0.61
2022-12-09T15:45:33.349Z,-0.64
2022-12-09T15:48:14.393Z,-0.68
2022-12-09T15:50:54.829Z,-0.70
2022-12-09T15:53:53.585Z,-0.77
2022-12-09T15:56:44.824Z,-0.83
2022-12-09T15:59:17.617Z,-0.85
2022-12-09T16:01:51.237Z,-0.93
2022-12-09T16:04:21.446Z,-0.98
2022-12-09T16:06:52.038Z,-1.08
2022-12-09T16:09:21.013Z,-1.11
2022-12-09T16:11:50.635Z,-1.18
2022-12-09T16:14:19.403Z,-1.25
2022-12-09T16:17:00.535Z,-1.33
2022-12-09T16:19:40.753Z,-1.38
2022-12-09T16:22:41.825Z,-1.41
2022-12-09T16:25:23.015Z,-1.43
2022-12-09T16:27:58.065Z,-1.44
2022-12-09T16:30:27.744Z,-1.49
2022-12-09T16:32:56.476Z,-1.54
2022-12-09T16:36:15.893Z,-1.58
2022-12-09T16:38:53.200Z,-1.59
2022-12-09T16:41:20.562Z,-1.56
2022-12-09T16:43:56.520Z,-1.58
2022-12-09T16:46:29.113Z,-1.58
2022-12-09T16:48:57.313Z,-1.56
2022-12-09T16:51:27.129Z,-1.73
2022-12-09T16:53:54.637Z,-1.58
2022-12-09T16:56:29.846Z,-1.59
2022-12-09T16:58:57.416Z,-1.58
2022-12-09T17:01:31.944Z,-1.58
2022-12-09T17:04:04.376Z,-1.58
2022-12-09T17:06:31.400Z,-1.60
2022-12-09T17:08:58.207Z,-1.62
2022-12-09T17:11:25.294Z,-1.65
2022-12-09T17:13:52.576Z,-1.68
2022-12-09T17:16:22.343Z,-1.73
2022-12-09T17:18:49.809Z,-1.76
2022-12-09T17:21:16.874Z,-1.81
2022-12-09T17:23:44.318Z,-1.85
2022-12-09T17:26:14.872Z,-1.88
2022-12-09T17:28:42.986Z,-1.92
2022-12-09T17:31:11.930Z,-1.94
2022-12-09T17:33:38.960Z,-1.95
2022-12-09T17:36:07.469Z,-1.96
2022-12-09T17:38:34.818Z,-2.01
2022-12-09T17:41:11.510Z,-2.05
2022-12-09T17:43:38.255Z,-2.12
2022-12-09T17:46:06.465Z,-2.16
2022-12-09T17:48:34.770Z,-2.16
2022-12-09T17:51:09.451Z,-2.16
2022-12-09T17:53:37.731Z,-2.16
2022-12-09T17:56:13.253Z,-2.16
2022-12-09T17:58:40.470Z,-2.18
2022-12-09T18:01:28.032Z,-2.25
2022-12-09T18:04:02.975Z,-2.27
2022-12-09T18:06:36.383Z,-2.30
2022-12-09T18:09:05.517Z,-2.37
2022-12-09T18:11:32.507Z,-2.41
2022-12-09T18:14:00.316Z,-2.45
2022-12-09T18:16:27.535Z,-2.50
2022-12-09T18:18:54.507Z,-2.55
2022-12-09T18:21:23.877Z,-2.59
2022-12-09T18:23:50.749Z,-2.59
2022-12-09T18:26:19.374Z,-2.59
2022-12-09T18:28:46.532Z,-2.61
2022-12-09T18:31:16.078Z,-2.65
2022-12-09T18:33:43.578Z,-2.70
2022-12-09T18:36:13.204Z,-2.74
2022-12-09T18:38:40.897Z,-2.81
2022-12-09T18:41:15.837Z,-2.92
2022-12-09T18:43:44.540Z,-3.02
2022-12-09T18:46:20.285Z,-3.03
2022-12-09T18:48:54.505Z,-3.07
2022-12-09T18:51:22.039Z,-3.11
2022-12-09T18:53:48.809Z,-3.16
2022-12-09T18:56:16.671Z,-3.20
2022-12-09T18:59:05.288Z,-3.22
2022-12-09T19:01:31.616Z,-3.19
2022-12-09T19:04:00.832Z,-3.18
2022-12-09T19:06:33.248Z,-3.20
2022-12-09T19:09:07.907Z,-3.16
2022-12-09T19:11:37.960Z,-3.19
2022-12-09T19:14:06.520Z,-3.24
2022-12-09T19:16:33.331Z,-3.28
2022-12-09T19:19:05.530Z,-3.30
2022-12-09T19:21:35.799Z,-3.31
2022-12-09T19:24:02.618Z,-3.33
2022-12-09T19:26:31.788Z,-3.41
2022-12-09T19:29:01.730Z,-3.46
2022-12-09T19:31:36.173Z,-3.53
2022-12-09T19:34:06.459Z,-3.55
2022-12-09T19:36:36.326Z,-3.58
2022-12-09T19:39:06.151Z,-3.60
2022-12-09T19:41:33.307Z,-3.63
2022-12-09T19:44:01.481Z,-3.65
2022-12-09T19:46:28.880Z,-3.65
2022-12-09T19:48:56.510Z,-3.68
2022-12-09T19:51:24.336Z,-3.65
2022-12-09T19:53:56.246Z,-3.68
2022-12-09T19:56:23.380Z,-3.71
2022-12-09T19:58:50.869Z,-3.75
2022-12-09T20:01:27.013Z,-3.74
2022-12-09T20:04:08.801Z,-3.77
2022-12-09T20:06:46.381Z,-3.84
2022-12-09T20:09:14.905Z,-3.89
2022-12-09T20:11:42.315Z,-3.97
2022-12-09T20:14:12.806Z,-4.08
2022-12-09T20:16:40.034Z,-4.14
2022-12-09T20:19:07.556Z,-4.17
2022-12-09T20:21:35.389Z,-4.17
2022-12-09T20:24:03.032Z,-4.17
2022-12-09T20:26:32.392Z,-4.17
2022-12-09T20:29:03.025Z,-4.19
2022-12-09T20:31:32.002Z,-4.18
2022-12-09T20:34:02.257Z,-4.22
2022-12-09T20:36:31.527Z,-4.23
2022-12-09T20:39:01.369Z,-4.26
2022-12-09T20:41:29.070Z,-4.32
2022-12-09T20:43:58.534Z,-4.31
2022-12-09T20:46:28.186Z,-4.35
2022-12-09T20:48:56.044Z,-4.37
2022-12-09T20:51:34.768Z,-4.40
2022-12-09T20:54:01.825Z,-4.47
2022-12-09T20:56:29.691Z,-4.56
2022-12-09T20:58:57.805Z,-4.49
2022-12-09T21:01:27.335Z,-4.47
2022-12-09T21:03:55.822Z,-4.46
2022-12-09T21:06:25.282Z,-4.41
2022-12-09T21:08:53.888Z,-4.42
2022-12-09T21:11:23.112Z,-4.50
2022-12-09T21:13:58.103Z,-4.45
2022-12-09T21:16:31.178Z,-4.51
2022-12-09T21:19:02.050Z,-4.51
2022-12-09T21:21:31.449Z,-4.57
2022-12-09T21:24:00.641Z,-4.55
2022-12-09T21:26:28.858Z,-4.53
2022-12-09T21:28:56.412Z,-4.49
2022-12-09T21:31:29.618Z,-4.45
2022-12-09T21:33:57.897Z,-4.43
2022-12-09T21:36:27.169Z,-4.43
2022-12-09T21:38:54.549Z,-4.51
2022-12-09T21:41:24.799Z,-4.55
2022-12-09T21:43:52.661Z,-4.61
2022-12-09T21:46:21.789Z,-4.65
2022-12-09T21:48:52.360Z,-4.70
2022-12-09T21:51:21.086Z,-4.75
2022-12-09T21:53:49.105Z,-4.79
2022-12-09T21:56:19.659Z,-4.84
2022-12-09T21:58:48.393Z,-4.88
2022-12-09T22:01:18.591Z,-4.91
2022-12-09T22:03:46.382Z,-4.97
2022-12-09T22:06:13.582Z,-5.06
2022-12-09T22:08:41.412Z,-5.14
2022-12-09T22:11:17.879Z,-5.15
2022-12-09T22:13:45.021Z,-5.24
2022-12-09T22:16:21.310Z,-5.29
2022-12-09T22:18:49.203Z,-5.40
2022-12-09T22:21:27.811Z,-5.46
2022-12-09T22:23:57.103Z,-5.42
2022-12-09T22:26:24.891Z,-5.36
2022-12-09T22:28:52.637Z,-5.33
2022-12-09T22:31:28.499Z,-5.36
2022-12-09T22:33:58.525Z,-5.27
2022-12-09T22:36:25.621Z,-5.29
2022-12-09T22:38:53.331Z,-5.20
2022-12-09T22:41:23.188Z,-5.17
2022-12-09T22:43:50.757Z,-5.09
2022-12-09T22:46:31.558Z,-5.18
2022-12-09T22:49:03.405Z,-5.08
2022-12-09T22:51:32.003Z,-5.15
2022-12-09T22:53:59.160Z,-5.17
2022-12-09T22:56:26.354Z,-5.23
2022-12-09T22:58:54.095Z,-5.33
2022-12-09T23:01:23.871Z,-5.39
2022-12-09T23:03:50.623Z,-5.42
2022-12-09T23:06:17.869Z,-5.43
2022-12-09T23:08:45.459Z,-5.49
2022-12-09T23:11:15.976Z,-5.53
2022-12-09T23:13:43.273Z,-5.60
2022-12-09T23:16:14.112Z,-5.68
2022-12-09T23:18:41.863Z,-5.76
2022-12-09T23:21:10.158Z,-5.83
2022-12-09T23:23:37.284Z,-5.89
2022-12-09T23:26:06.289Z,-5.88
2022-12-09T23:28:37.547Z,-5.88
2022-12-09T23:31:04.942Z,-5.71
2022-12-09T23:33:33.287Z,-5.65
2022-12-09T23:36:09.110Z,-5.49
2022-12-09T23:38:36.457Z,-5.39
2022-12-09T23:41:03.460Z,-5.27
2022-12-09T23:43:34.482Z,-5.18
2022-12-09T23:46:02.381Z,-5.05
2022-12-09T23:48:29.623Z,-4.97
2022-12-09T23:50:56.832Z,-4.87
2022-12-09T23:53:23.742Z,-4.79
2022-12-09T23:55:50.547Z,-4.77
2022-12-09T23:58:17.282Z,-4.79
